sensor_id;sensor_type;location;lat;lon;timestamp;P1;durP1;ratioP1;P2;durP2;ratioP2
35330;SDS011;21441;52.190;20.910;2023-09-19T00:00:19;14.35;;;12.35;;
35330;SDS011;21441;52.190;20.910;2023-09-19T00:03:07;15.18;;;13.02;;
35330;SDS011;21441;52.190;20.910;2023-09-19T00:05:34;14.88;;;12.98;;
35330;SDS011;21441;52.190;20.910;2023-09-19T00:08:04;16.13;;;12.52;;
35330;SDS011;21441;52.190;20.910;2023-09-19T00:10:32;14.82;;;12.85;;
35330;SDS011;21441;52.190;20.910;2023-09-19T00:13:02;14.45;;;12.90;;
35330;SDS011;21441;52.190;20.910;2023-09-19T00:15:31;14.55;;;13.05;;
35330;SDS011;21441;52.190;20.910;2023-09-19T00:18:03;14.85;;;13.13;;
35330;SDS011;21441;52.190;20.910;2023-09-19T00:20:31;15.85;;;12.70;;
35330;SDS011;21441;52.190;20.910;2023-09-19T00:23:00;15.55;;;13.18;;
35330;SDS011;21441;52.190;20.910;2023-09-19T00:25:33;15.15;;;13.38;;
35330;SDS011;21441;52.190;20.910;2023-09-19T00:28:02;16.23;;;14.02;;
35330;SDS011;21441;52.190;20.910;2023-09-19T00:30:30;18.17;;;12.68;;
35330;SDS011;21441;52.190;20.910;2023-09-19T00:32:57;15.90;;;12.93;;
35330;SDS011;21441;52.190;20.910;2023-09-19T00:35:23;15.10;;;13.50;;
35330;SDS011;21441;52.190;20.910;2023-09-19T00:37:51;15.80;;;13.23;;
35330;SDS011;21441;52.190;20.910;2023-09-19T00:40:19;17.65;;;13.02;;
35330;SDS011;21441;52.190;20.910;2023-09-19T00:42:47;18.70;;;13.77;;
35330;SDS011;21441;52.190;20.910;2023-09-19T00:45:17;20.13;;;14.00;;
35330;SDS011;21441;52.190;20.910;2023-09-19T00:47:46;19.33;;;12.90;;
35330;SDS011;21441;52.190;20.910;2023-09-19T00:50:16;17.40;;;14.35;;
35330;SDS011;21441;52.190;20.910;2023-09-19T00:52:46;20.00;;;14.52;;
35330;SDS011;21441;52.190;20.910;2023-09-19T00:55:15;16.40;;;14.40;;
35330;SDS011;21441;52.190;20.910;2023-09-19T00:57:45;14.95;;;13.25;;
35330;SDS011;21441;52.190;20.910;2023-09-19T01:00:13;15.60;;;13.95;;
35330;SDS011;21441;52.190;20.910;2023-09-19T01:02:42;17.20;;;14.10;;
35330;SDS011;21441;52.190;20.910;2023-09-19T01:05:10;16.35;;;14.18;;
35330;SDS011;21441;52.190;20.910;2023-09-19T01:07:38;16.05;;;13.43;;
35330;SDS011;21441;52.190;20.910;2023-09-19T01:10:06;16.90;;;13.98;;
35330;SDS011;21441;52.190;20.910;2023-09-19T01:15:11;16.92;;;13.90;;
35330;SDS011;21441;52.190;20.910;2023-09-19T01:17:51;20.75;;;14.68;;
35330;SDS011;21441;52.190;20.910;2023-09-19T01:20:29;18.63;;;14.27;;
35330;SDS011;21441;52.190;20.910;2023-09-19T01:23:11;17.98;;;14.95;;
35330;SDS011;21441;52.190;20.910;2023-09-19T01:26:01;16.20;;;13.95;;
35330;SDS011;21441;52.190;20.910;2023-09-19T01:28:34;15.63;;;13.85;;
35330;SDS011;21441;52.190;20.910;2023-09-19T01:31:13;15.80;;;13.43;;
35330;SDS011;21441;52.190;20.910;2023-09-19T01:33:58;17.13;;;13.85;;
35330;SDS011;21441;52.190;20.910;2023-09-19T01:36:27;16.65;;;14.30;;
35330;SDS011;21441;52.190;20.910;2023-09-19T01:38:55;16.45;;;13.75;;
35330;SDS011;21441;52.190;20.910;2023-09-19T01:44:25;17.75;;;13.52;;
35330;SDS011;21441;52.190;20.910;2023-09-19T01:46:59;19.40;;;13.88;;
35330;SDS011;21441;52.190;20.910;2023-09-19T01:49:33;18.73;;;13.35;;
35330;SDS011;21441;52.190;20.910;2023-09-19T01:52:05;18.45;;;14.48;;
35330;SDS011;21441;52.190;20.910;2023-09-19T01:54:40;18.60;;;14.88;;
35330;SDS011;21441;52.190;20.910;2023-09-19T01:57:14;17.98;;;13.95;;
35330;SDS011;21441;52.190;20.910;2023-09-19T01:59:48;17.40;;;14.25;;
35330;SDS011;21441;52.190;20.910;2023-09-19T02:02:23;17.15;;;14.60;;
35330;SDS011;21441;52.190;20.910;2023-09-19T02:04:51;15.68;;;14.00;;
35330;SDS011;21441;52.190;20.910;2023-09-19T02:07:21;20.05;;;14.68;;
35330;SDS011;21441;52.190;20.910;2023-09-19T02:09:48;16.35;;;14.55;;
35330;SDS011;21441;52.190;20.910;2023-09-19T02:12:15;17.60;;;14.95;;
35330;SDS011;21441;52.190;20.910;2023-09-19T02:14:42;15.75;;;13.68;;
35330;SDS011;21441;52.190;20.910;2023-09-19T02:17:09;19.33;;;14.02;;
35330;SDS011;21441;52.190;20.910;2023-09-19T02:19:38;18.10;;;14.07;;
35330;SDS011;21441;52.190;20.910;2023-09-19T02:22:06;17.58;;;14.73;;
35330;SDS011;21441;52.190;20.910;2023-09-19T02:24:36;18.90;;;14.93;;
35330;SDS011;21441;52.190;20.910;2023-09-19T02:27:03;18.95;;;15.52;;
35330;SDS011;21441;52.190;20.910;2023-09-19T02:29:31;19.10;;;13.73;;
35330;SDS011;21441;52.190;20.910;2023-09-19T02:31:59;15.50;;;13.73;;
35330;SDS011;21441;52.190;20.910;2023-09-19T02:34:27;16.73;;;14.98;;
35330;SDS011;21441;52.190;20.910;2023-09-19T02:36:55;16.75;;;14.15;;
35330;SDS011;21441;52.190;20.910;2023-09-19T02:39:22;21.25;;;15.18;;
35330;SDS011;21441;52.190;20.910;2023-09-19T02:41:49;19.10;;;15.25;;
35330;SDS011;21441;52.190;20.910;2023-09-19T02:44:16;16.35;;;14.10;;
35330;SDS011;21441;52.190;20.910;2023-09-19T02:46:45;17.35;;;14.48;;
35330;SDS011;21441;52.190;20.910;2023-09-19T02:49:12;20.85;;;14.77;;
35330;SDS011;21441;52.190;20.910;2023-09-19T02:51:39;17.73;;;14.95;;
35330;SDS011;21441;52.190;20.910;2023-09-19T02:54:08;21.27;;;15.35;;
35330;SDS011;21441;52.190;20.910;2023-09-19T02:56:35;16.80;;;15.05;;
35330;SDS011;21441;52.190;20.910;2023-09-19T02:59:02;15.70;;;14.05;;
35330;SDS011;21441;52.190;20.910;2023-09-19T03:01:30;17.23;;;14.43;;
35330;SDS011;21441;52.190;20.910;2023-09-19T03:03:57;17.40;;;15.60;;
35330;SDS011;21441;52.190;20.910;2023-09-19T03:06:24;17.65;;;14.82;;
35330;SDS011;21441;52.190;20.910;2023-09-19T03:08:51;17.77;;;14.50;;
35330;SDS011;21441;52.190;20.910;2023-09-19T03:11:19;19.00;;;14.88;;
35330;SDS011;21441;52.190;20.910;2023-09-19T03:16:18;17.33;;;14.07;;
35330;SDS011;21441;52.190;20.910;2023-09-19T03:18:47;18.08;;;15.32;;
35330;SDS011;21441;52.190;20.910;2023-09-19T03:21:14;19.45;;;15.20;;
35330;SDS011;21441;52.190;20.910;2023-09-19T03:23:42;18.88;;;14.20;;
35330;SDS011;21441;52.190;20.910;2023-09-19T03:26:11;19.05;;;14.23;;
35330;SDS011;21441;52.190;20.910;2023-09-19T03:28:41;19.58;;;13.63;;
35330;SDS011;21441;52.190;20.910;2023-09-19T03:31:09;20.17;;;14.95;;
35330;SDS011;21441;52.190;20.910;2023-09-19T03:33:36;19.13;;;15.07;;
35330;SDS011;21441;52.190;20.910;2023-09-19T03:36:03;19.05;;;14.57;;
35330;SDS011;21441;52.190;20.910;2023-09-19T03:38:32;17.88;;;14.77;;
35330;SDS011;21441;52.190;20.910;2023-09-19T03:41:00;17.38;;;14.68;;
35330;SDS011;21441;52.190;20.910;2023-09-19T03:43:27;16.25;;;14.43;;
35330;SDS011;21441;52.190;20.910;2023-09-19T03:45:55;20.08;;;15.20;;
35330;SDS011;21441;52.190;20.910;2023-09-19T03:48:22;20.10;;;14.90;;
35330;SDS011;21441;52.190;20.910;2023-09-19T03:50:49;18.58;;;15.20;;
35330;SDS011;21441;52.190;20.910;2023-09-19T03:53:16;18.20;;;15.55;;
35330;SDS011;21441;52.190;20.910;2023-09-19T03:55:44;16.48;;;14.77;;
35330;SDS011;21441;52.190;20.910;2023-09-19T03:58:11;17.70;;;15.80;;
35330;SDS011;21441;52.190;20.910;2023-09-19T04:00:38;19.83;;;17.23;;
35330;SDS011;21441;52.190;20.910;2023-09-19T04:03:07;19.08;;;15.35;;
35330;SDS011;21441;52.190;20.910;2023-09-19T04:05:36;19.50;;;14.93;;
35330;SDS011;21441;52.190;20.910;2023-09-19T04:08:03;16.90;;;14.38;;
35330;SDS011;21441;52.190;20.910;2023-09-19T04:10:30;17.38;;;14.48;;
35330;SDS011;21441;52.190;20.910;2023-09-19T04:12:57;18.98;;;14.20;;
35330;SDS011;21441;52.190;20.910;2023-09-19T04:15:24;17.25;;;15.18;;
35330;SDS011;21441;52.190;20.910;2023-09-19T04:17:51;17.15;;;14.52;;
35330;SDS011;21441;52.190;20.910;2023-09-19T04:20:19;19.23;;;15.18;;
35330;SDS011;21441;52.190;20.910;2023-09-19T04:22:48;18.92;;;14.65;;
35330;SDS011;21441;52.190;20.910;2023-09-19T04:25:15;19.42;;;15.43;;
35330;SDS011;21441;52.190;20.910;2023-09-19T04:27:44;19.10;;;15.20;;
35330;SDS011;21441;52.190;20.910;2023-09-19T04:30:11;19.13;;;14.45;;
35330;SDS011;21441;52.190;20.910;2023-09-19T04:32:40;18.05;;;16.15;;
35330;SDS011;21441;52.190;20.910;2023-09-19T04:35:08;22.58;;;15.45;;
35330;SDS011;21441;52.190;20.910;2023-09-19T04:37:38;17.58;;;14.32;;
35330;SDS011;21441;52.190;20.910;2023-09-19T04:40:07;17.13;;;13.73;;
35330;SDS011;21441;52.190;20.910;2023-09-19T04:42:39;20.15;;;14.75;;
35330;SDS011;21441;52.190;20.910;2023-09-19T04:45:07;18.77;;;16.02;;
35330;SDS011;21441;52.190;20.910;2023-09-19T04:47:36;21.40;;;15.70;;
35330;SDS011;21441;52.190;20.910;2023-09-19T04:50:05;18.70;;;14.90;;
35330;SDS011;21441;52.190;20.910;2023-09-19T04:52:40;19.70;;;14.95;;
35330;SDS011;21441;52.190;20.910;2023-09-19T04:55:09;21.67;;;15.35;;
35330;SDS011;21441;52.190;20.910;2023-09-19T04:57:39;18.02;;;15.05;;
35330;SDS011;21441;52.190;20.910;2023-09-19T05:00:06;20.60;;;15.48;;
35330;SDS011;21441;52.190;20.910;2023-09-19T05:02:38;18.42;;;13.82;;
35330;SDS011;21441;52.190;20.910;2023-09-19T05:05:06;18.38;;;15.15;;
35330;SDS011;21441;52.190;20.910;2023-09-19T05:07:34;18.77;;;14.23;;
35330;SDS011;21441;52.190;20.910;2023-09-19T05:10:02;19.98;;;14.98;;
35330;SDS011;21441;52.190;20.910;2023-09-19T05:12:32;19.08;;;13.43;;
35330;SDS011;21441;52.190;20.910;2023-09-19T05:15:00;16.90;;;14.00;;
35330;SDS011;21441;52.190;20.910;2023-09-19T05:17:29;20.40;;;14.68;;
35330;SDS011;21441;52.190;20.910;2023-09-19T05:19:56;18.45;;;14.95;;
35330;SDS011;21441;52.190;20.910;2023-09-19T05:22:23;19.77;;;14.52;;
35330;SDS011;21441;52.190;20.910;2023-09-19T05:24:52;19.95;;;14.20;;
35330;SDS011;21441;52.190;20.910;2023-09-19T05:27:21;20.33;;;15.05;;
35330;SDS011;21441;52.190;20.910;2023-09-19T05:29:48;15.93;;;13.98;;
35330;SDS011;21441;52.190;20.910;2023-09-19T05:32:16;15.02;;;13.43;;
35330;SDS011;21441;52.190;20.910;2023-09-19T05:34:45;15.13;;;13.50;;
35330;SDS011;21441;52.190;20.910;2023-09-19T05:37:12;17.20;;;14.05;;
35330;SDS011;21441;52.190;20.910;2023-09-19T05:39:41;23.38;;;14.38;;
35330;SDS011;21441;52.190;20.910;2023-09-19T05:42:09;15.57;;;13.77;;
35330;SDS011;21441;52.190;20.910;2023-09-19T05:44:37;15.77;;;13.70;;
35330;SDS011;21441;52.190;20.910;2023-09-19T05:47:04;16.75;;;13.60;;
35330;SDS011;21441;52.190;20.910;2023-09-19T05:49:34;18.83;;;14.45;;
35330;SDS011;21441;52.190;20.910;2023-09-19T05:52:03;17.70;;;13.95;;
35330;SDS011;21441;52.190;20.910;2023-09-19T05:54:30;15.43;;;13.18;;
35330;SDS011;21441;52.190;20.910;2023-09-19T05:56:58;17.65;;;13.68;;
35330;SDS011;21441;52.190;20.910;2023-09-19T05:59:25;19.15;;;13.32;;
35330;SDS011;21441;52.190;20.910;2023-09-19T06:01:54;17.45;;;12.85;;
35330;SDS011;21441;52.190;20.910;2023-09-19T06:04:20;17.77;;;13.50;;
35330;SDS011;21441;52.190;20.910;2023-09-19T06:06:48;15.63;;;13.10;;
35330;SDS011;21441;52.190;20.910;2023-09-19T06:09:15;15.95;;;13.27;;
35330;SDS011;21441;52.190;20.910;2023-09-19T06:11:43;19.42;;;14.20;;
35330;SDS011;21441;52.190;20.910;2023-09-19T06:14:10;16.17;;;12.75;;
35330;SDS011;21441;52.190;20.910;2023-09-19T06:16:37;17.17;;;12.40;;
35330;SDS011;21441;52.190;20.910;2023-09-19T06:19:06;17.13;;;13.10;;
35330;SDS011;21441;52.190;20.910;2023-09-19T06:21:34;17.45;;;12.95;;
35330;SDS011;21441;52.190;20.910;2023-09-19T06:24:01;15.82;;;13.75;;
35330;SDS011;21441;52.190;20.910;2023-09-19T06:26:29;17.70;;;13.50;;
35330;SDS011;21441;52.190;20.910;2023-09-19T06:28:56;14.45;;;12.35;;
35330;SDS011;21441;52.190;20.910;2023-09-19T06:31:25;14.73;;;13.07;;
35330;SDS011;21441;52.190;20.910;2023-09-19T06:33:52;14.93;;;12.57;;
35330;SDS011;21441;52.190;20.910;2023-09-19T06:36:20;15.48;;;12.95;;
35330;SDS011;21441;52.190;20.910;2023-09-19T06:38:47;14.55;;;12.77;;
35330;SDS011;21441;52.190;20.910;2023-09-19T06:41:17;18.10;;;13.70;;
35330;SDS011;21441;52.190;20.910;2023-09-19T06:43:44;15.55;;;12.05;;
35330;SDS011;21441;52.190;20.910;2023-09-19T06:46:11;16.45;;;12.82;;
35330;SDS011;21441;52.190;20.910;2023-09-19T06:48:38;17.50;;;12.77;;
35330;SDS011;21441;52.190;20.910;2023-09-19T06:51:06;20.13;;;13.15;;
35330;SDS011;21441;52.190;20.910;2023-09-19T06:53:35;15.20;;;12.80;;
35330;SDS011;21441;52.190;20.910;2023-09-19T06:56:02;13.15;;;11.77;;
35330;SDS011;21441;52.190;20.910;2023-09-19T06:58:29;13.30;;;11.85;;
35330;SDS011;21441;52.190;20.910;2023-09-19T07:00:57;13.98;;;11.35;;
35330;SDS011;21441;52.190;20.910;2023-09-19T07:03:23;13.95;;;12.40;;
35330;SDS011;21441;52.190;20.910;2023-09-19T07:05:52;14.57;;;12.65;;
35330;SDS011;21441;52.190;20.910;2023-09-19T07:08:21;18.65;;;12.38;;
35330;SDS011;21441;52.190;20.910;2023-09-19T07:10:49;15.05;;;11.63;;
35330;SDS011;21441;52.190;20.910;2023-09-19T07:13:18;13.32;;;11.90;;
35330;SDS011;21441;52.190;20.910;2023-09-19T07:15:45;14.23;;;11.90;;
35330;SDS011;21441;52.190;20.910;2023-09-19T07:20:43;13.98;;;11.80;;
35330;SDS011;21441;52.190;20.910;2023-09-19T07:23:14;15.15;;;11.52;;
35330;SDS011;21441;52.190;20.910;2023-09-19T07:25:42;18.05;;;12.13;;
35330;SDS011;21441;52.190;20.910;2023-09-19T07:28:10;17.48;;;12.43;;
35330;SDS011;21441;52.190;20.910;2023-09-19T07:30:37;13.25;;;11.70;;
35330;SDS011;21441;52.190;20.910;2023-09-19T07:33:04;15.63;;;13.23;;
35330;SDS011;21441;52.190;20.910;2023-09-19T07:35:31;16.48;;;13.63;;
35330;SDS011;21441;52.190;20.910;2023-09-19T07:37:59;17.00;;;13.70;;
35330;SDS011;21441;52.190;20.910;2023-09-19T07:40:27;17.75;;;15.20;;
35330;SDS011;21441;52.190;20.910;2023-09-19T07:42:54;20.42;;;14.93;;
35330;SDS011;21441;52.190;20.910;2023-09-19T07:45:23;16.77;;;13.52;;
35330;SDS011;21441;52.190;20.910;2023-09-19T07:47:50;16.83;;;13.80;;
35330;SDS011;21441;52.190;20.910;2023-09-19T07:50:18;18.10;;;14.38;;
35330;SDS011;21441;52.190;20.910;2023-09-19T07:52:46;19.35;;;16.63;;
35330;SDS011;21441;52.190;20.910;2023-09-19T07:55:13;18.23;;;14.70;;
35330;SDS011;21441;52.190;20.910;2023-09-19T07:57:42;19.67;;;15.55;;
35330;SDS011;21441;52.190;20.910;2023-09-19T08:00:10;18.45;;;15.15;;
35330;SDS011;21441;52.190;20.910;2023-09-19T08:02:39;19.90;;;14.93;;
35330;SDS011;21441;52.190;20.910;2023-09-19T08:05:07;17.90;;;14.70;;
35330;SDS011;21441;52.190;20.910;2023-09-19T08:07:36;15.50;;;13.88;;
35330;SDS011;21441;52.190;20.910;2023-09-19T08:10:04;18.27;;;14.88;;
35330;SDS011;21441;52.190;20.910;2023-09-19T08:12:33;16.25;;;14.48;;
35330;SDS011;21441;52.190;20.910;2023-09-19T08:15:01;18.50;;;14.50;;
35330;SDS011;21441;52.190;20.910;2023-09-19T08:17:29;16.48;;;14.23;;
35330;SDS011;21441;52.190;20.910;2023-09-19T08:20:02;16.70;;;14.40;;
35330;SDS011;21441;52.190;20.910;2023-09-19T08:22:30;15.60;;;13.00;;
35330;SDS011;21441;52.190;20.910;2023-09-19T08:24:58;15.13;;;12.60;;
35330;SDS011;21441;52.190;20.910;2023-09-19T08:27:24;17.33;;;13.73;;
35330;SDS011;21441;52.190;20.910;2023-09-19T08:29:53;15.90;;;12.93;;
35330;SDS011;21441;52.190;20.910;2023-09-19T08:32:20;14.15;;;12.65;;
35330;SDS011;21441;52.190;20.910;2023-09-19T08:34:49;17.75;;;13.02;;
35330;SDS011;21441;52.190;20.910;2023-09-19T08:37:18;17.25;;;14.02;;
35330;SDS011;21441;52.190;20.910;2023-09-19T08:39:45;14.95;;;13.10;;
35330;SDS011;21441;52.190;20.910;2023-09-19T08:42:11;17.10;;;13.93;;
35330;SDS011;21441;52.190;20.910;2023-09-19T08:44:39;15.02;;;13.40;;
35330;SDS011;21441;52.190;20.910;2023-09-19T08:47:09;14.82;;;13.30;;
35330;SDS011;21441;52.190;20.910;2023-09-19T08:49:41;16.00;;;13.85;;
35330;SDS011;21441;52.190;20.910;2023-09-19T08:52:22;17.15;;;14.13;;
35330;SDS011;21441;52.190;20.910;2023-09-19T08:54:52;16.60;;;14.13;;
35330;SDS011;21441;52.190;20.910;2023-09-19T08:57:23;15.45;;;13.63;;
35330;SDS011;21441;52.190;20.910;2023-09-19T08:59:51;17.85;;;13.52;;
35330;SDS011;21441;52.190;20.910;2023-09-19T09:02:20;17.20;;;14.13;;
35330;SDS011;21441;52.190;20.910;2023-09-19T09:04:49;15.30;;;13.55;;
35330;SDS011;21441;52.190;20.910;2023-09-19T09:07:17;13.63;;;12.07;;
35330;SDS011;21441;52.190;20.910;2023-09-19T09:09:47;14.40;;;11.63;;
35330;SDS011;21441;52.190;20.910;2023-09-19T09:12:14;12.50;;;11.20;;
35330;SDS011;21441;52.190;20.910;2023-09-19T09:14:43;12.07;;;10.02;;
35330;SDS011;21441;52.190;20.910;2023-09-19T09:17:10;13.35;;;9.77;;
35330;SDS011;21441;52.190;20.910;2023-09-19T09:19:38;12.68;;;10.32;;
35330;SDS011;21441;52.190;20.910;2023-09-19T09:22:08;12.05;;;10.27;;
35330;SDS011;21441;52.190;20.910;2023-09-19T09:24:36;16.80;;;11.23;;
35330;SDS011;21441;52.190;20.910;2023-09-19T09:27:06;15.23;;;12.13;;
35330;SDS011;21441;52.190;20.910;2023-09-19T09:29:42;14.23;;;12.40;;
35330;SDS011;21441;52.190;20.910;2023-09-19T09:32:16;14.27;;;11.82;;
35330;SDS011;21441;52.190;20.910;2023-09-19T09:34:45;21.13;;;12.02;;
35330;SDS011;21441;52.190;20.910;2023-09-19T09:37:13;12.65;;;11.35;;
35330;SDS011;21441;52.190;20.910;2023-09-19T09:39:48;17.27;;;12.15;;
35330;SDS011;21441;52.190;20.910;2023-09-19T09:42:29;21.50;;;13.20;;
35330;SDS011;21441;52.190;20.910;2023-09-19T09:45:12;21.25;;;14.93;;
35330;SDS011;21441;52.190;20.910;2023-09-19T09:47:44;16.35;;;13.43;;
35330;SDS011;21441;52.190;20.910;2023-09-19T09:50:25;17.63;;;13.48;;
35330;SDS011;21441;52.190;20.910;2023-09-19T09:52:55;18.85;;;13.48;;
35330;SDS011;21441;52.190;20.910;2023-09-19T09:55:36;14.80;;;13.23;;
35330;SDS011;21441;52.190;20.910;2023-09-19T09:58:25;15.27;;;12.55;;
35330;SDS011;21441;52.190;20.910;2023-09-19T10:00:55;14.18;;;11.00;;
35330;SDS011;21441;52.190;20.910;2023-09-19T10:03:32;10.75;;;9.48;;
35330;SDS011;21441;52.190;20.910;2023-09-19T10:06:07;12.82;;;10.27;;
35330;SDS011;21441;52.190;20.910;2023-09-19T10:09:00;11.13;;;9.25;;
35330;SDS011;21441;52.190;20.910;2023-09-19T10:11:46;10.57;;;8.98;;
35330;SDS011;21441;52.190;20.910;2023-09-19T10:14:20;12.88;;;8.13;;
35330;SDS011;21441;52.190;20.910;2023-09-19T10:16:57;13.40;;;8.88;;
35330;SDS011;21441;52.190;20.910;2023-09-19T10:19:29;13.27;;;9.73;;
35330;SDS011;21441;52.190;20.910;2023-09-19T10:22:02;11.75;;;9.38;;
35330;SDS011;21441;52.190;20.910;2023-09-19T10:24:34;14.70;;;9.73;;
35330;SDS011;21441;52.190;20.910;2023-09-19T10:27:04;11.30;;;10.10;;
35330;SDS011;21441;52.190;20.910;2023-09-19T10:29:35;11.80;;;10.10;;
35330;SDS011;21441;52.190;20.910;2023-09-19T10:32:05;10.82;;;9.55;;
35330;SDS011;21441;52.190;20.910;2023-09-19T10:34:35;10.45;;;8.38;;
35330;SDS011;21441;52.190;20.910;2023-09-19T10:37:02;12.77;;;9.73;;
35330;SDS011;21441;52.190;20.910;2023-09-19T10:39:34;10.93;;;8.57;;
35330;SDS011;21441;52.190;20.910;2023-09-19T10:42:04;10.57;;;9.05;;
35330;SDS011;21441;52.190;20.910;2023-09-19T10:44:37;9.38;;;8.27;;
35330;SDS011;21441;52.190;20.910;2023-09-19T10:47:06;9.85;;;8.77;;
35330;SDS011;21441;52.190;20.910;2023-09-19T10:49:32;9.88;;;7.32;;
35330;SDS011;21441;52.190;20.910;2023-09-19T10:52:00;9.50;;;8.50;;
35330;SDS011;21441;52.190;20.910;2023-09-19T10:54:29;10.30;;;7.85;;
35330;SDS011;21441;52.190;20.910;2023-09-19T10:57:02;9.63;;;7.28;;
35330;SDS011;21441;52.190;20.910;2023-09-19T10:59:30;8.15;;;7.35;;
35330;SDS011;21441;52.190;20.910;2023-09-19T11:02:15;9.68;;;7.45;;
35330;SDS011;21441;52.190;20.910;2023-09-19T11:04:43;11.38;;;8.02;;
35330;SDS011;21441;52.190;20.910;2023-09-19T11:07:13;10.50;;;8.68;;
35330;SDS011;21441;52.190;20.910;2023-09-19T11:09:44;11.30;;;8.23;;
35330;SDS011;21441;52.190;20.910;2023-09-19T11:12:12;8.30;;;7.45;;
35330;SDS011;21441;52.190;20.910;2023-09-19T11:14:40;9.60;;;8.02;;
35330;SDS011;21441;52.190;20.910;2023-09-19T11:17:31;8.90;;;7.05;;
35330;SDS011;21441;52.190;20.910;2023-09-19T11:20:18;9.40;;;7.80;;
35330;SDS011;21441;52.190;20.910;2023-09-19T11:25:51;11.00;;;7.47;;
35330;SDS011;21441;52.190;20.910;2023-09-19T11:28:35;9.23;;;7.32;;
35330;SDS011;21441;52.190;20.910;2023-09-19T11:40:32;6.90;;;6.20;;
35330;SDS011;21441;52.190;20.910;2023-09-19T11:43:04;10.23;;;7.63;;
35330;SDS011;21441;52.190;20.910;2023-09-19T11:46:03;10.13;;;7.40;;
35330;SDS011;21441;52.190;20.910;2023-09-19T11:48:30;9.13;;;7.47;;
35330;SDS011;21441;52.190;20.910;2023-09-19T11:51:00;9.27;;;7.20;;
35330;SDS011;21441;52.190;20.910;2023-09-19T11:53:32;8.27;;;7.03;;
35330;SDS011;21441;52.190;20.910;2023-09-19T11:56:01;8.43;;;7.53;;
35330;SDS011;21441;52.190;20.910;2023-09-19T11:58:36;9.45;;;7.82;;
35330;SDS011;21441;52.190;20.910;2023-09-19T12:01:04;10.27;;;8.02;;
35330;SDS011;21441;52.190;20.910;2023-09-19T12:03:40;8.65;;;7.72;;
35330;SDS011;21441;52.190;20.910;2023-09-19T12:06:12;12.45;;;8.57;;
35330;SDS011;21441;52.190;20.910;2023-09-19T12:08:40;10.52;;;8.07;;
35330;SDS011;21441;52.190;20.910;2023-09-19T12:11:13;9.18;;;8.20;;
35330;SDS011;21441;52.190;20.910;2023-09-19T12:13:42;8.90;;;8.00;;
35330;SDS011;21441;52.190;20.910;2023-09-19T12:16:12;8.57;;;7.57;;
35330;SDS011;21441;52.190;20.910;2023-09-19T12:18:41;10.65;;;7.70;;
35330;SDS011;21441;52.190;20.910;2023-09-19T12:21:24;9.15;;;7.78;;
35330;SDS011;21441;52.190;20.910;2023-09-19T12:23:57;9.65;;;8.23;;
35330;SDS011;21441;52.190;20.910;2023-09-19T12:26:26;9.63;;;7.40;;
35330;SDS011;21441;52.190;20.910;2023-09-19T12:28:54;9.18;;;7.82;;
35330;SDS011;21441;52.190;20.910;2023-09-19T12:31:21;11.30;;;7.88;;
35330;SDS011;21441;52.190;20.910;2023-09-19T12:33:52;11.32;;;8.07;;
35330;SDS011;21441;52.190;20.910;2023-09-19T12:36:20;9.50;;;8.48;;
35330;SDS011;21441;52.190;20.910;2023-09-19T12:38:52;10.55;;;8.20;;
35330;SDS011;21441;52.190;20.910;2023-09-19T12:41:20;9.75;;;8.55;;
35330;SDS011;21441;52.190;20.910;2023-09-19T12:43:48;11.20;;;9.43;;
35330;SDS011;21441;52.190;20.910;2023-09-19T12:46:19;9.88;;;8.57;;
35330;SDS011;21441;52.190;20.910;2023-09-19T12:51:43;12.38;;;8.80;;
35330;SDS011;21441;52.190;20.910;2023-09-19T12:54:11;11.00;;;8.48;;
35330;SDS011;21441;52.190;20.910;2023-09-19T12:56:40;9.43;;;8.25;;
35330;SDS011;21441;52.190;20.910;2023-09-19T12:59:10;11.07;;;8.63;;
35330;SDS011;21441;52.190;20.910;2023-09-19T13:01:39;10.23;;;8.20;;
35330;SDS011;21441;52.190;20.910;2023-09-19T13:04:10;11.02;;;8.73;;
35330;SDS011;21441;52.190;20.910;2023-09-19T13:06:44;13.13;;;9.35;;
35330;SDS011;21441;52.190;20.910;2023-09-19T13:09:15;10.93;;;8.30;;
35330;SDS011;21441;52.190;20.910;2023-09-19T13:11:43;10.85;;;8.98;;
35330;SDS011;21441;52.190;20.910;2023-09-19T13:14:14;11.88;;;9.02;;
35330;SDS011;21441;52.190;20.910;2023-09-19T13:16:54;11.00;;;9.32;;
35330;SDS011;21441;52.190;20.910;2023-09-19T13:19:35;11.63;;;9.23;;
35330;SDS011;21441;52.190;20.910;2023-09-19T13:25:08;11.95;;;8.40;;
35330;SDS011;21441;52.190;20.910;2023-09-19T13:27:40;12.43;;;7.95;;
35330;SDS011;21441;52.190;20.910;2023-09-19T13:30:08;12.15;;;8.73;;
35330;SDS011;21441;52.190;20.910;2023-09-19T13:32:36;13.73;;;10.20;;
35330;SDS011;21441;52.190;20.910;2023-09-19T13:35:06;15.40;;;10.00;;
35330;SDS011;21441;52.190;20.910;2023-09-19T13:37:34;10.95;;;9.50;;
35330;SDS011;21441;52.190;20.910;2023-09-19T13:40:04;9.13;;;8.18;;
35330;SDS011;21441;52.190;20.910;2023-09-19T13:42:33;9.75;;;8.75;;
35330;SDS011;21441;52.190;20.910;2023-09-19T13:45:01;12.70;;;9.57;;
35330;SDS011;21441;52.190;20.910;2023-09-19T13:47:30;12.02;;;9.90;;
35330;SDS011;21441;52.190;20.910;2023-09-19T13:49:58;12.07;;;9.30;;
35330;SDS011;21441;52.190;20.910;2023-09-19T13:52:26;10.65;;;9.63;;
35330;SDS011;21441;52.190;20.910;2023-09-19T13:54:56;14.18;;;10.48;;
35330;SDS011;21441;52.190;20.910;2023-09-19T13:57:23;11.38;;;10.05;;
35330;SDS011;21441;52.190;20.910;2023-09-19T13:59:52;15.57;;;11.77;;
35330;SDS011;21441;52.190;20.910;2023-09-19T14:02:20;18.90;;;11.48;;
35330;SDS011;21441;52.190;20.910;2023-09-19T14:04:49;16.20;;;11.57;;
35330;SDS011;21441;52.190;20.910;2023-09-19T14:07:16;14.85;;;11.90;;
35330;SDS011;21441;52.190;20.910;2023-09-19T14:09:45;13.55;;;12.15;;
35330;SDS011;21441;52.190;20.910;2023-09-19T14:12:13;15.48;;;11.75;;
35330;SDS011;21441;52.190;20.910;2023-09-19T14:14:40;12.18;;;9.30;;
35330;SDS011;21441;52.190;20.910;2023-09-19T14:17:09;11.13;;;8.52;;
35330;SDS011;21441;52.190;20.910;2023-09-19T14:19:36;9.20;;;8.30;;
35330;SDS011;21441;52.190;20.910;2023-09-19T14:22:04;9.27;;;8.38;;
35330;SDS011;21441;52.190;20.910;2023-09-19T14:24:33;9.75;;;8.73;;
35330;SDS011;21441;52.190;20.910;2023-09-19T14:27:00;8.63;;;7.25;;
35330;SDS011;21441;52.190;20.910;2023-09-19T14:29:29;9.27;;;8.43;;
35330;SDS011;21441;52.190;20.910;2023-09-19T14:31:56;8.52;;;7.05;;
35330;SDS011;21441;52.190;20.910;2023-09-19T14:34:24;8.07;;;7.20;;
35330;SDS011;21441;52.190;20.910;2023-09-19T14:36:50;9.30;;;7.43;;
35330;SDS011;21441;52.190;20.910;2023-09-19T14:39:19;11.15;;;7.55;;
35330;SDS011;21441;52.190;20.910;2023-09-19T14:41:46;8.20;;;7.38;;
35330;SDS011;21441;52.190;20.910;2023-09-19T14:44:13;8.40;;;7.18;;
35330;SDS011;21441;52.190;20.910;2023-09-19T14:46:41;7.50;;;6.68;;
35330;SDS011;21441;52.190;20.910;2023-09-19T14:49:08;7.53;;;6.82;;
35330;SDS011;21441;52.190;20.910;2023-09-19T14:51:38;7.97;;;7.15;;
35330;SDS011;21441;52.190;20.910;2023-09-19T14:54:06;8.05;;;7.22;;
35330;SDS011;21441;52.190;20.910;2023-09-19T14:56:34;8.30;;;7.40;;